sensor_id;sensor_type;location;lat;lon;timestamp;P1;durP1;ratioP1;P2;durP2;ratioP2
38465;SDS011;24244;51.950;5.902;2024-03-07T00:00:38;33.67;;;15.35;;
38465;SDS011;24244;51.950;5.902;2024-03-07T00:03:47;34.72;;;16.20;;
38465;SDS011;24244;51.950;5.902;2024-03-07T00:13:27;34.05;;;16.60;;
38465;SDS011;24244;51.950;5.902;2024-03-07T00:15:58;35.60;;;15.65;;
38465;SDS011;24244;51.950;5.902;2024-03-07T00:18:29;32.67;;;14.57;;
38465;SDS011;24244;51.950;5.902;2024-03-07T00:20:58;36.83;;;17.58;;
38465;SDS011;24244;51.950;5.902;2024-03-07T00:23:26;36.55;;;16.38;;
38465;SDS011;24244;51.950;5.902;2024-03-07T00:26:02;35.40;;;16.50;;
38465;SDS011;24244;51.950;5.902;2024-03-07T00:28:38;34.60;;;17.92;;
38465;SDS011;24244;51.950;5.902;2024-03-07T00:31:09;30.45;;;15.30;;
38465;SDS011;24244;51.950;5.902;2024-03-07T00:33:38;33.58;;;15.73;;
38465;SDS011;24244;51.950;5.902;2024-03-07T00:36:33;34.00;;;17.27;;
38465;SDS011;24244;51.950;5.902;2024-03-07T00:39:01;33.97;;;16.75;;
38465;SDS011;24244;51.950;5.902;2024-03-07T00:41:30;36.03;;;17.58;;
38465;SDS011;24244;51.950;5.902;2024-03-07T00:43:59;36.85;;;17.33;;
38465;SDS011;24244;51.950;5.902;2024-03-07T00:46:30;37.63;;;18.50;;
38465;SDS011;24244;51.950;5.902;2024-03-07T00:48:58;35.30;;;16.55;;
38465;SDS011;24244;51.950;5.902;2024-03-07T00:51:31;38.45;;;17.75;;
38465;SDS011;24244;51.950;5.902;2024-03-07T00:54:00;34.78;;;17.02;;
38465;SDS011;24244;51.950;5.902;2024-03-07T00:56:28;43.60;;;18.73;;
38465;SDS011;24244;51.950;5.902;2024-03-07T00:58:57;40.72;;;17.08;;
38465;SDS011;24244;51.950;5.902;2024-03-07T01:01:31;38.47;;;17.23;;
38465;SDS011;24244;51.950;5.902;2024-03-07T01:04:03;36.60;;;16.98;;
38465;SDS011;24244;51.950;5.902;2024-03-07T01:06:32;36.03;;;16.52;;
38465;SDS011;24244;51.950;5.902;2024-03-07T01:09:09;40.38;;;15.95;;
38465;SDS011;24244;51.950;5.902;2024-03-07T01:11:41;38.65;;;17.13;;
38465;SDS011;24244;51.950;5.902;2024-03-07T01:14:15;37.95;;;18.75;;
38465;SDS011;24244;51.950;5.902;2024-03-07T01:16:43;37.20;;;16.27;;
38465;SDS011;24244;51.950;5.902;2024-03-07T01:19:16;37.10;;;17.83;;
38465;SDS011;24244;51.950;5.902;2024-03-07T01:21:55;37.95;;;16.95;;
38465;SDS011;24244;51.950;5.902;2024-03-07T01:24:23;34.70;;;16.27;;
38465;SDS011;24244;51.950;5.902;2024-03-07T01:26:56;35.17;;;18.05;;
38465;SDS011;24244;51.950;5.902;2024-03-07T01:29:26;37.28;;;16.55;;
38465;SDS011;24244;51.950;5.902;2024-03-07T01:32:00;39.35;;;17.48;;
38465;SDS011;24244;51.950;5.902;2024-03-07T01:34:36;38.95;;;19.20;;
38465;SDS011;24244;51.950;5.902;2024-03-07T01:37:05;33.13;;;18.70;;
38465;SDS011;24244;51.950;5.902;2024-03-07T01:39:37;38.00;;;17.25;;
38465;SDS011;24244;51.950;5.902;2024-03-07T01:42:06;38.65;;;19.38;;
38465;SDS011;24244;51.950;5.902;2024-03-07T01:44:38;39.63;;;19.75;;
38465;SDS011;24244;51.950;5.902;2024-03-07T01:47:12;36.20;;;17.70;;
38465;SDS011;24244;51.950;5.902;2024-03-07T01:50:05;38.80;;;16.77;;
38465;SDS011;24244;51.950;5.902;2024-03-07T01:56:50;37.80;;;17.52;;
38465;SDS011;24244;51.950;5.902;2024-03-07T02:07:10;37.60;;;17.60;;
38465;SDS011;24244;51.950;5.902;2024-03-07T02:09:39;39.15;;;18.20;;
38465;SDS011;24244;51.950;5.902;2024-03-07T02:12:13;40.55;;;20.67;;
38465;SDS011;24244;51.950;5.902;2024-03-07T02:14:42;38.85;;;18.67;;
38465;SDS011;24244;51.950;5.902;2024-03-07T02:17:13;37.78;;;18.33;;
38465;SDS011;24244;51.950;5.902;2024-03-07T02:19:48;37.05;;;17.13;;
38465;SDS011;24244;51.950;5.902;2024-03-07T02:25:08;39.58;;;17.83;;
38465;SDS011;24244;51.950;5.902;2024-03-07T02:28:09;37.95;;;17.30;;
38465;SDS011;24244;51.950;5.902;2024-03-07T02:30:38;42.60;;;17.35;;
38465;SDS011;24244;51.950;5.902;2024-03-07T02:33:10;36.78;;;17.52;;
38465;SDS011;24244;51.950;5.902;2024-03-07T02:35:43;39.95;;;17.67;;
38465;SDS011;24244;51.950;5.902;2024-03-07T02:38:14;37.20;;;19.17;;
38465;SDS011;24244;51.950;5.902;2024-03-07T02:40:46;36.35;;;17.08;;
38465;SDS011;24244;51.950;5.902;2024-03-07T02:43:15;36.83;;;18.52;;
38465;SDS011;24244;51.950;5.902;2024-03-07T02:45:50;42.97;;;21.45;;
38465;SDS011;24244;51.950;5.902;2024-03-07T02:48:22;38.47;;;17.33;;
38465;SDS011;24244;51.950;5.902;2024-03-07T02:50:52;39.70;;;19.35;;
38465;SDS011;24244;51.950;5.902;2024-03-07T02:53:40;40.55;;;18.30;;
38465;SDS011;24244;51.950;5.902;2024-03-07T02:56:08;34.95;;;17.85;;
38465;SDS011;24244;51.950;5.902;2024-03-07T02:58:45;44.22;;;19.90;;
38465;SDS011;24244;51.950;5.902;2024-03-07T03:01:21;42.00;;;20.55;;
38465;SDS011;24244;51.950;5.902;2024-03-07T03:03:50;38.00;;;18.48;;
38465;SDS011;24244;51.950;5.902;2024-03-07T03:06:21;37.28;;;18.90;;
38465;SDS011;24244;51.950;5.902;2024-03-07T03:09:03;40.63;;;19.35;;
38465;SDS011;24244;51.950;5.902;2024-03-07T03:11:35;39.38;;;17.77;;
38465;SDS011;24244;51.950;5.902;2024-03-07T03:14:04;39.63;;;18.00;;
38465;SDS011;24244;51.950;5.902;2024-03-07T03:16:31;38.80;;;18.33;;
38465;SDS011;24244;51.950;5.902;2024-03-07T03:19:15;36.45;;;17.15;;
38465;SDS011;24244;51.950;5.902;2024-03-07T03:21:47;38.40;;;18.23;;
38465;SDS011;24244;51.950;5.902;2024-03-07T03:24:24;39.78;;;19.83;;
38465;SDS011;24244;51.950;5.902;2024-03-07T03:27:03;33.75;;;17.90;;
38465;SDS011;24244;51.950;5.902;2024-03-07T03:29:33;40.80;;;18.17;;
38465;SDS011;24244;51.950;5.902;2024-03-07T03:32:09;40.17;;;18.42;;
38465;SDS011;24244;51.950;5.902;2024-03-07T03:34:43;41.67;;;18.75;;
38465;SDS011;24244;51.950;5.902;2024-03-07T03:37:11;43.15;;;19.58;;
38465;SDS011;24244;51.950;5.902;2024-03-07T03:39:57;37.88;;;18.00;;
38465;SDS011;24244;51.950;5.902;2024-03-07T03:42:30;39.80;;;19.13;;
38465;SDS011;24244;51.950;5.902;2024-03-07T03:45:00;45.28;;;19.60;;
38465;SDS011;24244;51.950;5.902;2024-03-07T03:47:53;40.45;;;18.70;;
38465;SDS011;24244;51.950;5.902;2024-03-07T03:50:21;42.38;;;19.98;;
38465;SDS011;24244;51.950;5.902;2024-03-07T03:52:54;44.28;;;18.38;;
38465;SDS011;24244;51.950;5.902;2024-03-07T03:55:26;39.40;;;18.02;;
38465;SDS011;24244;51.950;5.902;2024-03-07T03:58:02;39.58;;;20.00;;
38465;SDS011;24244;51.950;5.902;2024-03-07T04:00:44;42.78;;;17.45;;
38465;SDS011;24244;51.950;5.902;2024-03-07T04:03:14;41.60;;;18.42;;
38465;SDS011;24244;51.950;5.902;2024-03-07T04:05:42;43.97;;;18.67;;
38465;SDS011;24244;51.950;5.902;2024-03-07T04:08:16;41.92;;;18.38;;
38465;SDS011;24244;51.950;5.902;2024-03-07T04:10:55;38.17;;;17.50;;
38465;SDS011;24244;51.950;5.902;2024-03-07T04:13:30;37.75;;;18.95;;
38465;SDS011;24244;51.950;5.902;2024-03-07T04:16:01;39.45;;;18.40;;
38465;SDS011;24244;51.950;5.902;2024-03-07T04:18:29;40.60;;;19.45;;
38465;SDS011;24244;51.950;5.902;2024-03-07T04:20:57;40.53;;;19.92;;
38465;SDS011;24244;51.950;5.902;2024-03-07T04:23:26;38.60;;;17.20;;
38465;SDS011;24244;51.950;5.902;2024-03-07T04:28:44;40.42;;;18.35;;
38465;SDS011;24244;51.950;5.902;2024-03-07T04:31:11;37.60;;;18.40;;
38465;SDS011;24244;51.950;5.902;2024-03-07T04:33:43;42.72;;;20.45;;
38465;SDS011;24244;51.950;5.902;2024-03-07T04:36:10;41.85;;;18.58;;
38465;SDS011;24244;51.950;5.902;2024-03-07T04:38:39;36.15;;;17.10;;
38465;SDS011;24244;51.950;5.902;2024-03-07T04:41:12;36.42;;;18.63;;
38465;SDS011;24244;51.950;5.902;2024-03-07T04:43:47;38.75;;;17.45;;
38465;SDS011;24244;51.950;5.902;2024-03-07T04:46:14;42.40;;;18.75;;
38465;SDS011;24244;51.950;5.902;2024-03-07T04:48:41;38.67;;;16.67;;
38465;SDS011;24244;51.950;5.902;2024-03-07T04:51:08;39.47;;;18.98;;
38465;SDS011;24244;51.950;5.902;2024-03-07T04:53:35;38.95;;;19.42;;
38465;SDS011;24244;51.950;5.902;2024-03-07T04:56:08;41.42;;;19.08;;
38465;SDS011;24244;51.950;5.902;2024-03-07T04:58:35;38.45;;;17.77;;
38465;SDS011;24244;51.950;5.902;2024-03-07T05:01:04;37.30;;;17.85;;
38465;SDS011;24244;51.950;5.902;2024-03-07T05:03:31;41.30;;;18.00;;
38465;SDS011;24244;51.950;5.902;2024-03-07T05:05:58;43.08;;;17.63;;
38465;SDS011;24244;51.950;5.902;2024-03-07T05:08:26;41.17;;;19.20;;
38465;SDS011;24244;51.950;5.902;2024-03-07T05:10:53;41.33;;;19.98;;
38465;SDS011;24244;51.950;5.902;2024-03-07T05:13:21;38.83;;;19.25;;
38465;SDS011;24244;51.950;5.902;2024-03-07T05:15:47;36.97;;;18.98;;
38465;SDS011;24244;51.950;5.902;2024-03-07T05:18:18;36.33;;;19.15;;
38465;SDS011;24244;51.950;5.902;2024-03-07T05:20:45;40.42;;;19.95;;
38465;SDS011;24244;51.950;5.902;2024-03-07T05:23:11;44.10;;;18.65;;
38465;SDS011;24244;51.950;5.902;2024-03-07T05:25:43;37.85;;;19.52;;
38465;SDS011;24244;51.950;5.902;2024-03-07T05:28:12;38.03;;;18.40;;
38465;SDS011;24244;51.950;5.902;2024-03-07T05:30:39;36.78;;;17.80;;
38465;SDS011;24244;51.950;5.902;2024-03-07T05:33:05;42.90;;;18.42;;
38465;SDS011;24244;51.950;5.902;2024-03-07T05:35:35;44.38;;;18.25;;
38465;SDS011;24244;51.950;5.902;2024-03-07T05:38:01;38.88;;;17.42;;
38465;SDS011;24244;51.950;5.902;2024-03-07T05:40:31;36.40;;;19.10;;
38465;SDS011;24244;51.950;5.902;2024-03-07T05:42:59;38.13;;;19.45;;
38465;SDS011;24244;51.950;5.902;2024-03-07T05:45:26;39.88;;;19.08;;
38465;SDS011;24244;51.950;5.902;2024-03-07T05:47:53;36.90;;;18.13;;
38465;SDS011;24244;51.950;5.902;2024-03-07T05:50:20;38.03;;;19.02;;
38465;SDS011;24244;51.950;5.902;2024-03-07T05:52:48;41.00;;;20.23;;
38465;SDS011;24244;51.950;5.902;2024-03-07T05:55:15;39.13;;;17.30;;
38465;SDS011;24244;51.950;5.902;2024-03-07T05:57:44;37.28;;;17.73;;
38465;SDS011;24244;51.950;5.902;2024-03-07T06:00:11;36.30;;;17.80;;
38465;SDS011;24244;51.950;5.902;2024-03-07T06:02:41;36.45;;;17.17;;
38465;SDS011;24244;51.950;5.902;2024-03-07T06:05:08;38.03;;;17.63;;
38465;SDS011;24244;51.950;5.902;2024-03-07T06:07:43;40.83;;;19.83;;
38465;SDS011;24244;51.950;5.902;2024-03-07T06:10:12;39.17;;;18.50;;
38465;SDS011;24244;51.950;5.902;2024-03-07T06:12:38;35.42;;;17.23;;
38465;SDS011;24244;51.950;5.902;2024-03-07T06:15:26;35.70;;;17.55;;
38465;SDS011;24244;51.950;5.902;2024-03-07T06:17:54;39.17;;;17.88;;
38465;SDS011;24244;51.950;5.902;2024-03-07T06:20:21;36.17;;;17.27;;
38465;SDS011;24244;51.950;5.902;2024-03-07T06:22:51;39.50;;;18.35;;
38465;SDS011;24244;51.950;5.902;2024-03-07T06:25:20;35.88;;;17.00;;
38465;SDS011;24244;51.950;5.902;2024-03-07T06:27:59;35.50;;;17.13;;
38465;SDS011;24244;51.950;5.902;2024-03-07T06:30:35;38.42;;;18.30;;
38465;SDS011;24244;51.950;5.902;2024-03-07T06:33:02;36.90;;;17.33;;
38465;SDS011;24244;51.950;5.902;2024-03-07T06:35:30;33.80;;;17.67;;
38465;SDS011;24244;51.950;5.902;2024-03-07T06:37:57;37.97;;;16.88;;
38465;SDS011;24244;51.950;5.902;2024-03-07T06:40:25;33.50;;;16.95;;
38465;SDS011;24244;51.950;5.902;2024-03-07T06:42:55;34.38;;;18.23;;
38465;SDS011;24244;51.950;5.902;2024-03-07T06:45:22;32.90;;;17.17;;
38465;SDS011;24244;51.950;5.902;2024-03-07T06:47:50;32.53;;;16.25;;
38465;SDS011;24244;51.950;5.902;2024-03-07T06:50:19;33.10;;;17.42;;
38465;SDS011;24244;51.950;5.902;2024-03-07T06:53:02;30.45;;;15.25;;
38465;SDS011;24244;51.950;5.902;2024-03-07T06:55:31;33.95;;;15.60;;
38465;SDS011;24244;51.950;5.902;2024-03-07T06:58:00;31.75;;;15.75;;
38465;SDS011;24244;51.950;5.902;2024-03-07T07:00:27;30.55;;;16.08;;
38465;SDS011;24244;51.950;5.902;2024-03-07T07:02:54;31.00;;;16.52;;
38465;SDS011;24244;51.950;5.902;2024-03-07T07:05:21;35.72;;;18.83;;
38465;SDS011;24244;51.950;5.902;2024-03-07T07:07:49;32.38;;;15.57;;
38465;SDS011;24244;51.950;5.902;2024-03-07T07:10:17;27.30;;;14.57;;
38465;SDS011;24244;51.950;5.902;2024-03-07T07:12:45;32.58;;;16.40;;
38465;SDS011;24244;51.950;5.902;2024-03-07T07:15:14;32.35;;;16.33;;
38465;SDS011;24244;51.950;5.902;2024-03-07T07:17:42;33.83;;;17.58;;
38465;SDS011;24244;51.950;5.902;2024-03-07T07:20:13;30.95;;;15.82;;
38465;SDS011;24244;51.950;5.902;2024-03-07T07:22:41;29.63;;;15.30;;
38465;SDS011;24244;51.950;5.902;2024-03-07T07:25:08;31.08;;;14.65;;
38465;SDS011;24244;51.950;5.902;2024-03-07T07:27:43;32.40;;;15.65;;
38465;SDS011;24244;51.950;5.902;2024-03-07T07:30:13;33.80;;;17.27;;
38465;SDS011;24244;51.950;5.902;2024-03-07T07:32:41;35.90;;;16.67;;
38465;SDS011;24244;51.950;5.902;2024-03-07T07:35:09;34.35;;;17.05;;
38465;SDS011;24244;51.950;5.902;2024-03-07T07:37:41;30.63;;;17.33;;
38465;SDS011;24244;51.950;5.902;2024-03-07T07:40:10;29.73;;;14.95;;
38465;SDS011;24244;51.950;5.902;2024-03-07T07:42:45;29.35;;;14.32;;
38465;SDS011;24244;51.950;5.902;2024-03-07T07:45:13;33.30;;;17.70;;
38465;SDS011;24244;51.950;5.902;2024-03-07T07:47:42;30.25;;;15.40;;
38465;SDS011;24244;51.950;5.902;2024-03-07T07:50:12;30.30;;;14.77;;
38465;SDS011;24244;51.950;5.902;2024-03-07T07:52:40;30.73;;;14.57;;
38465;SDS011;24244;51.950;5.902;2024-03-07T07:55:08;30.98;;;14.95;;
38465;SDS011;24244;51.950;5.902;2024-03-07T07:57:43;26.98;;;14.23;;
38465;SDS011;24244;51.950;5.902;2024-03-07T08:00:14;28.25;;;13.63;;
38465;SDS011;24244;51.950;5.902;2024-03-07T08:02:52;29.27;;;14.73;;
38465;SDS011;24244;51.950;5.902;2024-03-07T08:05:19;31.05;;;15.05;;
38465;SDS011;24244;51.950;5.902;2024-03-07T08:07:49;28.20;;;13.95;;
38465;SDS011;24244;51.950;5.902;2024-03-07T08:10:17;28.65;;;15.02;;
38465;SDS011;24244;51.950;5.902;2024-03-07T08:12:45;31.83;;;16.73;;
38465;SDS011;24244;51.950;5.902;2024-03-07T08:15:13;31.00;;;14.43;;
38465;SDS011;24244;51.950;5.902;2024-03-07T08:17:41;24.63;;;12.98;;
38465;SDS011;24244;51.950;5.902;2024-03-07T08:20:10;28.48;;;13.60;;
38465;SDS011;24244;51.950;5.902;2024-03-07T08:22:38;30.70;;;14.70;;
38465;SDS011;24244;51.950;5.902;2024-03-07T08:25:07;27.80;;;12.90;;
38465;SDS011;24244;51.950;5.902;2024-03-07T08:27:35;26.73;;;15.07;;
38465;SDS011;24244;51.950;5.902;2024-03-07T08:30:04;31.08;;;14.65;;
38465;SDS011;24244;51.950;5.902;2024-03-07T08:32:34;23.88;;;13.98;;
38465;SDS011;24244;51.950;5.902;2024-03-07T08:35:04;25.10;;;12.80;;
38465;SDS011;24244;51.950;5.902;2024-03-07T08:37:34;27.45;;;14.52;;
38465;SDS011;24244;51.950;5.902;2024-03-07T08:40:01;24.05;;;11.88;;
38465;SDS011;24244;51.950;5.902;2024-03-07T08:42:33;23.33;;;13.35;;
38465;SDS011;24244;51.950;5.902;2024-03-07T08:45:00;24.20;;;13.60;;
38465;SDS011;24244;51.950;5.902;2024-03-07T08:47:31;24.40;;;13.77;;
38465;SDS011;24244;51.950;5.902;2024-03-07T08:49:59;25.05;;;13.13;;
38465;SDS011;24244;51.950;5.902;2024-03-07T08:52:27;20.58;;;11.02;;
38465;SDS011;24244;51.950;5.902;2024-03-07T08:54:54;24.95;;;13.80;;
38465;SDS011;24244;51.950;5.902;2024-03-07T08:57:21;23.60;;;12.13;;
38465;SDS011;24244;51.950;5.902;2024-03-07T08:59:48;25.50;;;12.15;;
38465;SDS011;24244;51.950;5.902;2024-03-07T09:02:16;25.73;;;12.45;;
38465;SDS011;24244;51.950;5.902;2024-03-07T09:04:43;25.63;;;13.52;;
38465;SDS011;24244;51.950;5.902;2024-03-07T09:07:11;24.65;;;13.32;;
38465;SDS011;24244;51.950;5.902;2024-03-07T09:09:41;27.60;;;12.43;;
38465;SDS011;24244;51.950;5.902;2024-03-07T09:12:11;21.10;;;10.48;;
38465;SDS011;24244;51.950;5.902;2024-03-07T09:14:38;26.50;;;13.88;;
38465;SDS011;24244;51.950;5.902;2024-03-07T09:17:08;24.45;;;11.93;;
38465;SDS011;24244;51.950;5.902;2024-03-07T09:19:35;20.88;;;10.88;;
38465;SDS011;24244;51.950;5.902;2024-03-07T09:22:02;21.85;;;12.30;;
38465;SDS011;24244;51.950;5.902;2024-03-07T09:24:31;21.08;;;12.18;;
38465;SDS011;24244;51.950;5.902;2024-03-07T09:26:58;22.83;;;12.70;;
38465;SDS011;24244;51.950;5.902;2024-03-07T09:29:25;24.13;;;13.07;;
38465;SDS011;24244;51.950;5.902;2024-03-07T09:31:52;20.98;;;11.50;;
38465;SDS011;24244;51.950;5.902;2024-03-07T09:34:20;20.00;;;11.60;;
38465;SDS011;24244;51.950;5.902;2024-03-07T09:36:47;23.52;;;13.45;;
38465;SDS011;24244;51.950;5.902;2024-03-07T09:39:15;22.10;;;11.65;;
38465;SDS011;24244;51.950;5.902;2024-03-07T09:41:43;18.95;;;9.88;;
38465;SDS011;24244;51.950;5.902;2024-03-07T09:44:11;22.45;;;10.82;;
38465;SDS011;24244;51.950;5.902;2024-03-07T09:46:40;21.67;;;10.82;;
38465;SDS011;24244;51.950;5.902;2024-03-07T09:49:07;21.40;;;10.27;;
38465;SDS011;24244;51.950;5.902;2024-03-07T09:51:38;23.88;;;10.77;;
38465;SDS011;24244;51.950;5.902;2024-03-07T09:54:06;22.00;;;11.40;;
38465;SDS011;24244;51.950;5.902;2024-03-07T09:56:33;21.02;;;10.77;;
38465;SDS011;24244;51.950;5.902;2024-03-07T09:59:05;19.95;;;10.45;;
38465;SDS011;24244;51.950;5.902;2024-03-07T10:01:37;22.83;;;11.63;;
38465;SDS011;24244;51.950;5.902;2024-03-07T10:04:05;22.63;;;10.32;;
38465;SDS011;24244;51.950;5.902;2024-03-07T10:06:41;19.85;;;11.27;;
38465;SDS011;24244;51.950;5.902;2024-03-07T10:09:07;20.25;;;10.20;;
38465;SDS011;24244;51.950;5.902;2024-03-07T10:11:34;21.25;;;11.90;;
38465;SDS011;24244;51.950;5.902;2024-03-07T10:14:02;20.25;;;10.40;;
38465;SDS011;24244;51.950;5.902;2024-03-07T10:16:32;23.38;;;11.80;;
38465;SDS011;24244;51.950;5.902;2024-03-07T10:18:59;20.85;;;11.63;;
38465;SDS011;24244;51.950;5.902;2024-03-07T10:21:29;22.67;;;11.93;;
38465;SDS011;24244;51.950;5.902;2024-03-07T10:24:05;23.25;;;11.45;;
38465;SDS011;24244;51.950;5.902;2024-03-07T10:26:36;23.40;;;12.13;;
38465;SDS011;24244;51.950;5.902;2024-03-07T10:29:04;20.25;;;11.13;;
38465;SDS011;24244;51.950;5.902;2024-03-07T10:31:33;23.38;;;11.30;;
38465;SDS011;24244;51.950;5.902;2024-03-07T10:34:04;23.88;;;12.43;;
38465;SDS011;24244;51.950;5.902;2024-03-07T10:36:31;23.55;;;11.25;;
38465;SDS011;24244;51.950;5.902;2024-03-07T10:38:58;24.73;;;12.40;;
38465;SDS011;24244;51.950;5.902;2024-03-07T10:41:29;25.70;;;12.27;;
38465;SDS011;24244;51.950;5.902;2024-03-07T10:44:03;23.13;;;10.38;;
38465;SDS011;24244;51.950;5.902;2024-03-07T10:46:33;20.33;;;11.30;;
38465;SDS011;24244;51.950;5.902;2024-03-07T10:49:01;23.17;;;12.07;;
38465;SDS011;24244;51.950;5.902;2024-03-07T10:51:36;21.92;;;9.68;;
38465;SDS011;24244;51.950;5.902;2024-03-07T10:54:13;21.70;;;11.80;;
38465;SDS011;24244;51.950;5.902;2024-03-07T10:56:53;19.48;;;10.50;;
38465;SDS011;24244;51.950;5.902;2024-03-07T10:59:29;24.48;;;11.43;;
38465;SDS011;24244;51.950;5.902;2024-03-07T11:02:04;21.02;;;11.30;;
38465;SDS011;24244;51.950;5.902;2024-03-07T11:04:42;21.52;;;11.40;;
38465;SDS011;24244;51.950;5.902;2024-03-07T11:07:11;19.73;;;9.57;;
38465;SDS011;24244;51.950;5.902;2024-03-07T11:09:38;21.55;;;11.68;;
38465;SDS011;24244;51.950;5.902;2024-03-07T11:12:08;25.85;;;12.18;;
38465;SDS011;24244;51.950;5.902;2024-03-07T11:14:38;21.52;;;11.88;;
38465;SDS011;24244;51.950;5.902;2024-03-07T11:17:08;22.77;;;11.77;;
38465;SDS011;24244;51.950;5.902;2024-03-07T11:19:36;21.38;;;10.43;;
38465;SDS011;24244;51.950;5.902;2024-03-07T11:22:03;20.73;;;11.02;;
38465;SDS011;24244;51.950;5.902;2024-03-07T11:24:43;20.48;;;9.25;;
38465;SDS011;24244;51.950;5.902;2024-03-07T11:27:12;21.83;;;10.30;;
38465;SDS011;24244;51.950;5.902;2024-03-07T11:29:42;18.60;;;9.82;;
38465;SDS011;24244;51.950;5.902;2024-03-07T11:34:42;19.35;;;9.13;;
38465;SDS011;24244;51.950;5.902;2024-03-07T11:37:16;21.15;;;11.25;;
38465;SDS011;24244;51.950;5.902;2024-03-07T11:39:44;21.48;;;10.35;;
38465;SDS011;24244;51.950;5.902;2024-03-07T11:42:23;20.00;;;11.23;;
38465;SDS011;24244;51.950;5.902;2024-03-07T11:44:55;19.88;;;9.95;;
38465;SDS011;24244;51.950;5.902;2024-03-07T11:47:25;19.15;;;10.07;;
38465;SDS011;24244;51.950;5.902;2024-03-07T11:49:56;20.70;;;10.07;;
38465;SDS011;24244;51.950;5.902;2024-03-07T11:52:24;19.42;;;9.38;;
38465;SDS011;24244;51.950;5.902;2024-03-07T11:54:54;20.25;;;10.35;;
38465;SDS011;24244;51.950;5.902;2024-03-07T11:57:30;21.40;;;10.57;;
38465;SDS011;24244;51.950;5.902;2024-03-07T12:00:00;16.95;;;8.20;;
38465;SDS011;24244;51.950;5.902;2024-03-07T12:02:29;23.00;;;10.88;;
38465;SDS011;24244;51.950;5.902;2024-03-07T12:04:56;19.65;;;10.50;;
38465;SDS011;24244;51.950;5.902;2024-03-07T12:07:24;20.48;;;10.43;;
38465;SDS011;24244;51.950;5.902;2024-03-07T12:09:50;19.10;;;9.30;;
38465;SDS011;24244;51.950;5.902;2024-03-07T12:12:20;20.20;;;9.93;;
38465;SDS011;24244;51.950;5.902;2024-03-07T12:14:56;21.50;;;9.43;;
38465;SDS011;24244;51.950;5.902;2024-03-07T12:17:23;17.75;;;9.70;;
38465;SDS011;24244;51.950;5.902;2024-03-07T12:19:52;18.50;;;9.63;;
38465;SDS011;24244;51.950;5.902;2024-03-07T12:22:19;17.50;;;9.05;;
38465;SDS011;24244;51.950;5.902;2024-03-07T12:24:59;17.25;;;8.02;;
38465;SDS011;24244;51.950;5.902;2024-03-07T12:27:28;18.50;;;9.25;;
38465;SDS011;24244;51.950;5.902;2024-03-07T12:29:58;18.90;;;9.25;;
38465;SDS011;24244;51.950;5.902;2024-03-07T12:32:28;18.10;;;8.60;;
38465;SDS011;24244;51.950;5.902;2024-03-07T12:34:56;19.35;;;9.73;;
38465;SDS011;24244;51.950;5.902;2024-03-07T12:37:23;18.95;;;9.75;;
38465;SDS011;24244;51.950;5.902;2024-03-07T12:39:53;18.40;;;9.05;;
38465;SDS011;24244;51.950;5.902;2024-03-07T12:42:28;21.13;;;9.55;;
38465;SDS011;24244;51.950;5.902;2024-03-07T12:44:57;20.13;;;10.77;;
38465;SDS011;24244;51.950;5.902;2024-03-07T12:47:28;18.33;;;10.85;;
38465;SDS011;24244;51.950;5.902;2024-03-07T12:49:58;17.20;;;10.40;;
38465;SDS011;24244;51.950;5.902;2024-03-07T12:52:27;19.13;;;9.98;;
38465;SDS011;24244;51.950;5.902;2024-03-07T12:54:56;21.98;;;11.10;;
38465;SDS011;24244;51.950;5.902;2024-03-07T12:57:23;19.25;;;9.55;;
38465;SDS011;24244;51.950;5.902;2024-03-07T12:59:53;19.20;;;10.38;;
38465;SDS011;24244;51.950;5.902;2024-03-07T13:02:21;17.42;;;10.00;;
38465;SDS011;24244;51.950;5.902;2024-03-07T13:04:52;19.65;;;11.32;;
38465;SDS011;24244;51.950;5.902;2024-03-07T13:07:20;19.17;;;10.50;;
38465;SDS011;24244;51.950;5.902;2024-03-07T13:09:47;19.73;;;10.32;;
38465;SDS011;24244;51.950;5.902;2024-03-07T13:12:14;21.05;;;12.02;;
38465;SDS011;24244;51.950;5.902;2024-03-07T13:14:41;18.13;;;8.70;;
38465;SDS011;24244;51.950;5.902;2024-03-07T13:17:10;20.25;;;10.50;;
38465;SDS011;24244;51.950;5.902;2024-03-07T13:19:40;20.60;;;10.13;;
38465;SDS011;24244;51.950;5.902;2024-03-07T13:22:09;19.88;;;11.25;;
38465;SDS011;24244;51.950;5.902;2024-03-07T13:24:39;22.52;;;11.27;;
38465;SDS011;24244;51.950;5.902;2024-03-07T13:27:09;21.50;;;9.88;;
38465;SDS011;24244;51.950;5.902;2024-03-07T13:29:38;18.75;;;9.98;;
38465;SDS011;24244;51.950;5.902;2024-03-07T13:32:05;19.75;;;10.95;;
38465;SDS011;24244;51.950;5.902;2024-03-07T13:34:32;20.65;;;10.25;;
38465;SDS011;24244;51.950;5.902;2024-03-07T13:36:58;20.85;;;10.88;;
38465;SDS011;24244;51.950;5.902;2024-03-07T13:39:27;18.85;;;9.43;;
38465;SDS011;24244;51.950;5.902;2024-03-07T13:41:55;20.67;;;10.05;;
38465;SDS011;24244;51.950;5.902;2024-03-07T13:44:22;17.02;;;9.40;;
38465;SDS011;24244;51.950;5.902;2024-03-07T13:46:49;19.10;;;9.98;;
38465;SDS011;24244;51.950;5.902;2024-03-07T13:49:16;17.80;;;8.90;;
38465;SDS011;24244;51.950;5.902;2024-03-07T13:51:43;20.33;;;9.80;;
38465;SDS011;24244;51.950;5.902;2024-03-07T13:54:17;19.80;;;9.57;;
38465;SDS011;24244;51.950;5.902;2024-03-07T13:57:11;17.27;;;9.20;;
38465;SDS011;24244;51.950;5.902;2024-03-07T14:02:56;16.83;;;9.75;;
38465;SDS011;24244;51.950;5.902;2024-03-07T14:05:53;18.38;;;10.60;;
38465;SDS011;24244;51.950;5.902;2024-03-07T14:11:37;18.52;;;9.45;;
38465;SDS011;24244;51.950;5.902;2024-03-07T14:14:39;17.17;;;9.68;;
38465;SDS011;24244;51.950;5.902;2024-03-07T14:17:31;18.55;;;10.13;;
38465;SDS011;24244;51.950;5.902;2024-03-07T14:20:30;17.60;;;9.18;;
38465;SDS011;24244;51.950;5.902;2024-03-07T14:23:18;19.30;;;10.77;;
38465;SDS011;24244;51.950;5.902;2024-03-07T14:26:02;16.25;;;8.02;;
38465;SDS011;24244;51.950;5.902;2024-03-07T14:28:55;18.27;;;10.02;;
38465;SDS011;24244;51.950;5.902;2024-03-07T14:31:39;15.70;;;9.13;;
38465;SDS011;24244;51.950;5.902;2024-03-07T14:34:08;16.08;;;8.73;;
38465;SDS011;24244;51.950;5.902;2024-03-07T14:39:13;17.30;;;9.15;;
38465;SDS011;24244;51.950;5.902;2024-03-07T14:41:43;15.30;;;8.60;;
38465;SDS011;24244;51.950;5.902;2024-03-07T14:44:16;18.40;;;10.20;;
38465;SDS011;24244;51.950;5.902;2024-03-07T14:46:45;18.13;;;9.30;;
38465;SDS011;24244;51.950;5.902;2024-03-07T14:49:16;14.98;;;8.15;;
38465;SDS011;24244;51.950;5.902;2024-03-07T14:51:44;20.40;;;10.70;;
38465;SDS011;24244;51.950;5.902;2024-03-07T14:54:25;14.88;;;8.23;;
38465;SDS011;24244;51.950;5.902;2024-03-07T14:56:53;16.13;;;8.25;;
38465;SDS011;24244;51.950;5.902;2024-03-07T14:59:20;15.02;;;8.93;;
38465;SDS011;24244;51.950;5.902;2024-03-07T15:01:49;17.00;;;9.02;;
38465;SDS011;24244;51.950;5.902;2024-03-07T15:04:16;20.50;;;10.60;;
38465;SDS011;24244;51.950;5.902;2024-03-07T15:06:42;17.60;;;8.57;;
38465;SDS011;24244;51.950;5.902;2024-03-07T15:09:10;14.57;;;8.48;;
38465;SDS011;24244;51.950;5.902;2024-03-07T15:11:40;18.00;;;10.23;;
38465;SDS011;24244;51.950;5.902;2024-03-07T15:14:07;16.13;;;9.52;;
38465;SDS011;24244;51.950;5.902;2024-03-07T15:16:38;18.40;;;9.77;;
38465;SDS011;24244;51.950;5.902;2024-03-07T15:19:07;18.52;;;9.63;;
38465;SDS011;24244;51.950;5.902;2024-03-07T15:21:35;14.57;;;8.75;;